Time;durP1;ratioP1;P1;durP2;ratioP2;P2;SDS_P1;SDS_P2;PMS_P1;PMS_P2;Temp;Humidity;BMP_temperature;BMP_pressure;BME280_temperature;BME280_humidity;BME280_pressure;Samples;Min_cycle;Max_cycle;Signal;HPM_P1;HPM_P2
2022/09/30 00:01:44;;;;;;;7.20;6.28;;;12.90;99.90;;;13.17;75.53;100659.28;4825835;29;20099;-76
2022/09/30 00:04:16;;;;;;;6.70;5.93;;;12.90;99.90;;;12.73;75.21;100580.41;4825978;29;20046;-77
2022/09/30 00:06:46;;;;;;;6.70;6.10;;;12.90;99.90;;;13.32;75.58;100670.50;4825385;29;20038;-77
2022/09/30 00:09:15;;;;;;;7.70;6.80;;;13.00;99.90;;;13.28;75.66;100666.16;4824833;29;20073;-76
2022/09/30 00:11:45;;;;;;;9.23;6.53;;;13.00;99.90;;;13.29;76.06;100664.38;4825642;29;20413;-77
2022/09/30 00:14:17;;;;;;;9.20;6.90;;;13.00;99.90;;;13.36;76.39;100664.22;4825638;29;20082;-76
2022/09/30 00:16:46;;;;;;;7.30;6.60;;;13.00;99.90;;;13.49;76.48;100675.50;4825958;29;20432;-78
2022/09/30 00:19:14;;;;;;;8.80;6.80;;;13.10;99.90;;;13.38;76.18;100648.25;4825824;29;20053;-77
2022/09/30 00:21:45;;;;;;;8.38;6.40;;;13.20;99.90;;;13.69;76.27;100688.38;4825266;29;20050;-77
2022/09/30 00:24:13;;;;;;;8.00;6.70;;;13.30;99.90;;;13.77;76.72;100667.84;4825210;29;20046;-77
2022/09/30 00:26:41;;;;;;;8.85;6.90;;;13.40;99.90;;;13.73;77.18;100666.16;4825234;29;20401;-77
2022/09/30 00:29:10;;;;;;;9.77;7.13;;;13.40;99.90;;;13.79;77.01;100663.38;4825181;29;20087;-77
2022/09/30 00:31:39;;;;;;;8.32;6.63;;;13.40;99.90;;;13.84;76.82;100662.34;4825341;29;20052;-77
2022/09/30 00:34:10;;;;;;;8.80;5.95;;;13.40;99.90;;;13.91;76.44;100663.13;4825327;29;20086;-77
2022/09/30 00:36:42;;;;;;;;;;;13.50;99.90;;;13.78;75.83;100667.78;4825515;29;20087;-77
2022/09/30 00:39:17;;;;;;;9.50;6.90;;;13.50;99.90;;;13.75;75.83;100657.25;4825410;29;19981;-77
2022/09/30 00:41:48;;;;;;;9.30;6.65;;;13.40;99.90;;;13.75;75.93;100653.69;4825112;29;20446;-77
2022/09/30 00:44:44;;;;;;;;;;;13.50;99.90;;;13.83;75.82;100651.75;4825298;29;20073;-78
2022/09/30 00:47:42;;;;;;;7.50;6.70;;;13.60;99.90;;;13.80;76.16;100654.50;4825242;29;19964;-77
2022/09/30 00:50:19;;;;;;;9.70;6.88;;;13.50;99.90;;;13.80;75.93;100644.72;4825358;29;20049;-77
2022/09/30 00:52:53;;;;;;;8.60;6.40;;;13.50;99.90;;;13.89;75.83;100662.28;4824921;29;20051;-77
2022/09/30 00:55:33;;;;;;;6.93;6.22;;;13.50;99.90;;;13.81;75.76;100666.88;4825082;29;20099;-77
2022/09/30 00:58:03;;;;;;;9.32;7.03;;;13.50;99.90;;;13.85;75.90;100663.25;4838929;29;20089;-77
2022/09/30 01:00:32;;;;;;;7.43;6.65;;;13.50;99.90;;;13.77;75.47;100649.22;4824775;29;20071;-77
2022/09/30 01:03:01;;;;;;;8.50;6.35;;;13.50;99.90;;;13.77;75.72;100660.75;4824656;29;20102;-77
2022/09/30 01:05:33;;;;;;;8.60;6.65;;;13.40;99.90;;;13.81;75.88;100659.78;4824579;29;20043;-77
2022/09/30 01:08:04;;;;;;;7.82;6.32;;;13.50;99.90;;;13.05;75.86;100534.69;4838823;29;20103;-77
2022/09/30 01:10:34;;;;;;;7.07;6.38;;;13.40;99.90;;;13.66;76.36;100651.25;4824960;29;20050;-77
2022/09/30 01:13:03;;;;;;;6.97;6.20;;;13.40;99.90;;;13.73;76.25;100666.16;4824635;29;20042;-76
2022/09/30 01:15:48;;;;;;;7.90;6.47;;;13.40;99.90;;;13.72;76.35;100669.72;4824788;29;20074;-76
2022/09/30 01:18:27;;;;;;;6.60;5.70;;;13.40;99.90;;;13.72;75.81;100662.63;4824415;29;20088;-76
2022/09/30 01:21:30;;;;;;;8.27;6.40;;;13.40;99.90;;;13.69;75.65;100672.44;4824998;29;20050;-77
2022/09/30 01:24:32;;;;;;;6.00;5.50;;;13.40;99.90;;;13.58;76.11;100664.69;4824385;29;20077;-77
2022/09/30 01:27:19;;;;;;;6.88;6.22;;;13.20;99.90;;;13.46;76.52;100654.28;4824526;29;20047;-77
2022/09/30 01:30:11;;;;;;;7.15;6.32;;;13.10;99.90;;;13.44;77.17;100664.97;4824607;29;20133;-77
2022/09/30 01:33:19;;;;;;;8.60;6.82;;;13.00;99.90;;;13.51;77.26;100663.91;4838479;29;20600;-75
2022/09/30 01:36:08;;;;;;;7.88;6.10;;;13.00;99.90;;;13.69;77.07;100669.78;4825045;29;20058;-76
2022/09/30 01:38:47;;;;;;;7.90;6.15;;;13.20;99.90;;;13.83;76.34;100670.38;4824275;29;20504;-76
2022/09/30 01:41:27;;;;;;;5.57;5.07;;;13.40;99.90;;;13.76;75.86;100685.59;4838155;29;20145;-76
2022/09/30 01:44:04;;;;;;;7.38;5.50;;;13.40;99.90;;;13.73;75.77;100666.16;4824496;29;20054;-76
2022/09/30 01:46:42;;;;;;;5.18;4.53;;;13.40;99.90;;;13.39;75.48;100664.16;4824758;29;20050;-76
2022/09/30 01:49:24;;;;;;;6.30;5.30;;;13.10;99.90;;;13.16;76.64;100661.06;4824214;29;20444;-76
2022/09/30 01:51:59;;;;;;;6.88;6.18;;;12.70;99.90;;;13.14;77.58;100660.19;4824706;29;20070;-77
2022/09/30 01:54:33;;;;;;;7.63;6.65;;;12.70;99.90;;;13.14;78.56;100646.06;4838312;29;20101;-76
2022/09/30 01:57:08;;;;;;;7.97;6.70;;;12.70;99.90;;;13.18;78.86;100645.13;4824097;29;20134;-76
2022/09/30 01:59:43;;;;;;;6.97;5.90;;;12.70;99.90;;;13.23;79.13;100649.44;4823156;29;20065;-76
2022/09/30 02:02:18;;;;;;;6.95;6.32;;;12.80;99.90;;;13.27;79.16;100643.16;4824355;29;20070;-75
2022/09/30 02:04:56;;;;;;;8.95;6.47;;;12.90;99.90;;;13.31;79.06;100647.50;4824411;29;20050;-76
2022/09/30 02:07:31;;;;;;;6.68;6.07;;;12.90;99.90;;;13.36;78.55;100642.97;4824265;29;20055;-76
2022/09/30 02:10:06;;;;;;;6.75;6.00;;;13.00;99.90;;;13.27;78.44;100626.34;4823989;29;20497;-76
2022/09/30 02:12:44;;;;;;;11.35;5.47;;;13.00;99.90;;;13.37;77.02;100650.06;4823931;29;20056;-76
2022/09/30 02:15:19;;;;;;;5.82;5.22;;;13.00;99.90;;;13.41;76.28;100642.88;4824394;29;20048;-76
2022/09/30 02:17:52;;;;;;;6.93;5.95;;;13.10;99.90;;;13.44;76.54;100651.66;4823914;29;20414;-75
2022/09/30 02:20:27;;;;;;;8.45;6.53;;;13.10;99.90;;;13.42;76.67;100653.47;4824109;29;20117;-77
2022/09/30 02:23:02;;;;;;;7.35;6.18;;;13.20;99.90;;;13.44;76.64;100650.78;4824155;29;20054;-77
2022/09/30 02:25:37;;;;;;;7.32;6.53;;;13.20;99.90;;;13.52;76.66;100671.00;4824158;29;20115;-76
2022/09/30 02:28:12;;;;;;;7.72;5.65;;;13.20;99.90;;;13.51;76.34;100679.88;4823792;29;20042;-76
2022/09/30 02:30:48;;;;;;;5.43;5.00;;;13.20;99.90;;;13.37;75.99;100678.38;4838338;29;20456;-77
2022/09/30 02:33:21;;;;;;;6.88;6.07;;;13.10;99.90;;;13.27;75.73;100675.03;4826863;29;20509;-76
2022/09/30 02:35:57;;;;;;;6.28;5.68;;;13.00;99.90;;;13.13;76.09;100671.75;4826899;29;20054;-77
2022/09/30 02:38:33;;;;;;;5.93;5.32;;;12.80;99.90;;;12.99;76.61;100676.38;4826905;29;20095;-77
2022/09/30 02:41:05;;;;;;;6.05;4.30;;;12.60;99.90;;;12.80;76.18;100651.06;4827092;29;20046;-77
2022/09/30 02:43:34;;;;;;;5.30;4.35;;;12.60;99.90;;;12.82;75.59;100670.50;4841192;29;20500;-77
2022/09/30 02:46:10;;;;;;;4.40;4.10;;;12.60;99.90;;;12.78;75.45;100663.47;4841006;29;20056;-76
2022/09/30 02:48:47;;;;;;;7.40;4.40;;;12.50;99.90;;;12.78;75.64;100667.91;4827033;29;20054;-77
2022/09/30 02:51:24;;;;;;;5.00;4.15;;;12.40;99.90;;;12.62;75.66;100664.63;4827230;29;20057;-76
2022/09/30 02:54:02;;;;;;;5.00;4.28;;;12.40;99.90;;;12.64;75.99;100670.78;4826675;29;20050;-76
2022/09/30 02:56:48;;;;;;;5.32;4.93;;;12.30;99.90;;;12.63;76.17;100671.69;4826718;29;20074;-76
2022/09/30 02:59:16;;;;;;;6.22;4.75;;;12.30;99.90;;;12.66;76.52;100656.59;4826531;29;20046;-68
2022/09/30 03:01:45;;;;;;;4.57;4.18;;;12.30;99.90;;;12.64;76.51;100668.13;4826390;29;20047;-67
2022/09/30 03:04:18;;;;;;;5.90;5.25;;;12.30;99.90;;;12.61;76.81;100692.06;4827013;29;20053;-67
2022/09/30 03:06:48;;;;;;;6.55;5.95;;;12.30;99.90;;;12.69;77.09;100675.13;4826638;29;20048;-68
2022/09/30 03:09:17;;;;;;;7.18;6.50;;;12.30;99.90;;;12.19;77.04;100554.81;4826925;29;20046;-68
2022/09/30 03:11:47;;;;;;;10.07;7.65;;;12.40;99.90;;;12.94;77.80;100677.38;4826439;29;20042;-68
2022/09/30 03:14:44;;;;;;;9.95;7.57;;;12.50;99.90;;;12.93;78.21;100665.84;4826247;29;20058;-67
2022/09/30 03:17:43;;;;;;;7.95;7.13;;;12.60;99.90;;;12.77;78.39;100643.16;4823601;29;20118;-68
2022/09/30 03:20:37;;;;;;;11.32;7.75;;;12.60;99.90;;;12.96;78.56;100673.78;4826240;29;20042;-67
2022/09/30 03:23:48;;;;;;;11.40;7.70;;;12.60;99.90;;;13.03;79.00;100677.19;4826438;29;20077;-67
2022/09/30 03:26:31;;;;;;;9.77;7.90;;;12.70;99.90;;;13.02;78.79;100692.28;4822704;29;20146;-68
2022/09/30 03:29:11;;;;;;;9.48;7.93;;;12.70;99.90;;;13.03;78.97;100696.69;4826118;29;20050;-67
2022/09/30 03:31:50;;;;;;;9.02;7.43;;;12.70;99.90;;;13.06;78.69;100699.31;4826447;29;20374;-67
2022/09/30 03:34:26;;;;;;;10.20;7.28;;;12.80;99.90;;;13.06;78.12;100706.41;4824182;29;20079;-67
2022/09/30 03:37:03;;;;;;;8.25;6.35;;;12.80;99.90;;;13.04;78.13;100713.53;4826144;29;20116;-67
2022/09/30 03:39:51;;;;;;;7.45;5.95;;;12.80;99.90;;;13.04;77.11;100702.91;4825947;29;20495;-68
2022/09/30 03:42:27;;;;;;;7.85;5.75;;;12.80;99.90;;;12.94;76.24;100717.19;4825809;29;20053;-68
2022/09/30 03:45:04;;;;;;;8.73;6.00;;;12.70;99.90;;;12.74;76.36;100696.28;4825918;29;20520;-67
2022/09/30 03:47:38;;;;;;;6.30;5.78;;;12.60;99.90;;;12.69;76.87;100708.75;4840031;29;20046;-67
2022/09/30 03:50:10;;;;;;;6.38;5.78;;;12.40;99.90;;;12.34;77.37;100679.22;4825844;29;20057;-67
2022/09/30 03:52:38;;;;;;;6.65;6.07;;;12.10;99.90;;;12.44;77.72;100710.91;4825953;29;20557;-67
2022/09/30 03:55:10;;;;;;;5.50;5.00;;;12.00;99.90;;;12.46;77.41;100714.41;4825678;29;20074;-67
2022/09/30 03:57:38;;;;;;;6.82;6.32;;;12.10;99.90;;;12.48;77.14;100703.78;4839964;29;20059;-67
2022/09/30 04:00:08;;;;;;;10.80;6.80;;;12.10;99.90;;;12.48;77.82;100712.63;4825568;29;20419;-67
2022/09/30 04:02:36;;;;;;;8.70;7.53;;;12.10;99.90;;;12.63;78.14;100719.44;4839910;29;20058;-67
2022/09/30 04:05:07;;;;;;;9.40;4.90;;;12.20;99.90;;;12.62;77.72;100715.03;4825477;29;20050;-67
2022/09/30 04:07:36;;;;;;;6.03;5.43;;;12.30;99.90;;;12.66;76.93;100727.34;4825656;29;20066;-67
2022/09/30 04:10:05;;;;;;;7.68;6.45;;;12.30;99.90;;;12.69;76.64;100728.22;4825410;29;20420;-67
2022/09/30 04:12:35;;;;;;;14.73;6.93;;;12.30;99.90;;;12.68;77.07;100721.13;4825829;29;20497;-67
2022/09/30 04:15:05;;;;;;;9.33;6.80;;;12.30;99.90;;;12.65;77.25;100715.88;4825795;29;20076;-67
2022/09/30 04:17:33;;;;;;;8.15;7.10;;;12.40;99.90;;;12.66;77.47;100725.59;4825512;29;20302;-67
2022/09/30 04:20:01;;;;;;;6.28;5.68;;;12.30;99.90;;;12.60;77.38;100727.47;4825266;29;20513;-68
2022/09/30 04:22:30;;;;;;;7.25;6.53;;;12.30;99.90;;;12.23;77.55;100692.63;4825179;29;20061;-67
2022/09/30 04:24:58;;;;;;;6.85;6.22;;;12.10;99.90;;;12.35;77.92;100712.81;4825189;29;20055;-67
2022/09/30 04:27:26;;;;;;;5.60;4.95;;;12.00;99.90;;;12.39;77.94;100730.41;4825242;29;20129;-67
2022/09/30 04:29:56;;;;;;;7.70;6.93;;;12.00;99.90;;;12.40;78.30;100726.88;4825253;29;20053;-67
2022/09/30 04:32:25;;;;;;;9.85;6.90;;;12.00;99.90;;;12.37;78.81;100730.44;4825085;29;20129;-68
2022/09/30 04:34:54;;;;;;;10.10;7.68;;;12.00;99.90;;;12.42;79.28;100727.72;4838895;29;20089;-67
2022/09/30 04:37:23;;;;;;;8.30;7.32;;;12.00;99.90;;;12.44;79.59;100732.13;4823912;29;20426;-67
2022/09/30 04:39:51;;;;;;;10.05;9.00;;;12.00;99.90;;;12.50;79.80;100729.34;4824979;29;20505;-67
2022/09/30 04:42:19;;;;;;;10.02;8.50;;;12.10;99.90;;;12.51;80.11;100732.91;4824939;29;20088;-67
2022/09/30 04:44:48;;;;;;;10.18;9.20;;;12.10;99.90;;;12.55;80.24;100737.25;4825181;29;20053;-67
2022/09/30 04:47:17;;;;;;;11.93;9.38;;;12.20;99.90;;;12.48;80.38;100738.25;4838849;29;20513;-67
2022/09/30 04:49:46;;;;;;;9.80;8.80;;;12.20;99.90;;;12.42;80.66;100727.72;4825119;29;20133;-67
2022/09/30 04:52:14;;;;;;;11.70;8.93;;;12.20;99.90;;;12.22;80.50;100698.84;4824781;29;20042;-68
2022/09/30 04:54:42;;;;;;;13.98;9.25;;;12.20;99.90;;;12.39;80.49;100718.03;4824324;29;20046;-67
2022/09/30 04:57:12;;;;;;;12.00;9.23;;;12.20;99.90;;;12.55;80.35;100745.22;4824680;29;20050;-68
2022/09/30 04:59:42;;;;;;;8.70;7.82;;;12.30;99.90;;;12.52;80.04;100739.97;4825156;29;20053;-68
2022/09/30 05:02:11;;;;;;;8.85;7.95;;;12.30;99.90;;;12.47;79.65;100741.78;4824702;29;20061;-68
2022/09/30 05:04:41;;;;;;;11.07;9.15;;;12.20;99.90;;;12.43;79.27;100748.03;4824670;29;20421;-67
2022/09/30 05:07:09;;;;;;;9.70;8.70;;;12.10;99.90;;;12.38;79.24;100757.84;4838740;29;20078;-68
2022/09/30 05:09:38;;;;;;;9.65;8.65;;;12.10;99.90;;;12.40;79.42;100753.41;4824534;29;20057;-68
2022/09/30 05:12:07;;;;;;;11.57;8.98;;;12.00;99.90;;;12.15;79.98;100712.19;4824589;29;20412;-68
2022/09/30 05:14:35;;;;;;;13.10;9.60;;;12.00;99.90;;;12.46;79.87;100759.50;4824783;29;20054;-68
2022/09/30 05:17:03;;;;;;;11.05;9.90;;;12.10;99.90;;;12.47;80.09;100763.00;4825085;29;20054;-68
2022/09/30 05:19:32;;;;;;;15.25;10.73;;;12.10;99.90;;;12.50;80.28;100757.69;4824402;29;20137;-68
2022/09/30 05:22:02;;;;;;;12.10;10.40;;;12.10;99.90;;;12.52;80.48;100759.41;4824455;29;20058;-68
2022/09/30 05:24:30;;;;;;;11.98;10.52;;;12.10;99.90;;;12.56;80.73;100760.25;4824405;29;20168;-68
2022/09/30 05:26:58;;;;;;;9.68;8.68;;;12.20;99.90;;;12.59;80.59;100752.22;4824452;29;20051;-68
2022/09/30 05:29:27;;;;;;;11.48;10.30;;;12.20;99.90;;;12.59;80.81;100761.09;4824230;29;20053;-68
2022/09/30 05:31:55;;;;;;;15.60;12.05;;;12.20;99.90;;;12.58;80.69;100761.97;4824419;29;20050;-67
2022/09/30 05:34:24;;;;;;;12.93;11.27;;;12.30;99.90;;;12.58;81.22;100761.97;4824151;29;20129;-68
2022/09/30 05:36:52;;;;;;;14.82;10.55;;;12.30;99.90;;;12.61;81.24;100761.06;4824462;29;20132;-68
2022/09/30 05:39:22;;;;;;;11.85;10.50;;;12.30;99.90;;;12.49;81.15;100747.94;4824298;29;20053;-68
2022/09/30 05:41:50;;;;;;;13.02;10.77;;;12.30;99.90;;;12.61;81.24;100756.63;4824187;29;20043;-68
2022/09/30 05:44:19;;;;;;;14.88;11.32;;;12.30;99.90;;;12.50;81.54;100744.41;4838524;29;20085;-68
2022/09/30 05:46:47;;;;;;;12.60;10.70;;;12.30;99.90;;;12.67;81.59;100779.53;4824386;29;20073;-68
2022/09/30 05:49:16;;;;;;;15.65;11.23;;;12.30;99.90;;;12.46;81.34;100730.31;4824636;29;20076;-68
2022/09/30 05:51:44;;;;;;;14.55;12.30;;;12.30;99.90;;;12.68;81.17;100755.63;4824423;29;20050;-68
2022/09/30 05:54:13;;;;;;;14.40;12.07;;;12.40;99.90;;;12.82;81.24;100762.50;4824534;29;20068;-68
2022/09/30 05:56:42;;;;;;;14.45;11.70;;;12.40;99.90;;;12.84;81.09;100766.91;4824260;29;20058;-68
2022/09/30 05:59:11;;;;;;;17.35;13.52;;;12.50;99.90;;;12.86;81.15;100759.78;4824040;29;20053;-68
2022/09/30 06:01:39;;;;;;;14.15;10.68;;;12.50;99.90;;;12.61;81.27;100734.53;4824090;29;20111;-68
2022/09/30 06:04:07;;;;;;;16.52;12.18;;;12.50;99.90;;;13.01;81.28;100762.19;4823936;29;20569;-68
2022/09/30 06:06:36;;;;;;;13.85;11.10;;;12.60;99.90;;;13.21;81.15;100776.06;4826309;29;20049;-68
2022/09/30 06:09:05;;;;;;;13.68;10.23;;;12.80;99.90;;;13.20;81.02;100755.72;4827290;29;20085;-68
2022/09/30 06:11:33;;;;;;;17.52;14.10;;;12.90;99.90;;;13.49;80.97;100772.03;4827251;29;20057;-68
2022/09/30 06:14:03;;;;;;;18.67;13.48;;;13.10;99.90;;;13.64;80.87;100770.00;4827723;29;20051;-68
2022/09/30 06:16:32;;;;;;;14.70;13.10;;;13.20;99.90;;;13.78;80.57;100766.16;4827217;29;20047;-68
2022/09/30 06:19:00;;;;;;;17.45;12.88;;;13.40;99.90;;;13.88;80.00;100764.22;4827204;29;20091;-68
2022/09/30 06:21:28;;;;;;;17.35;12.70;;;13.60;99.90;;;14.06;79.27;100769.16;4827166;29;20413;-68
2022/09/30 06:23:57;;;;;;;16.65;12.20;;;13.80;99.90;;;14.21;78.76;100766.19;4827252;29;20053;-67
2022/09/30 06:26:25;;;;;;;14.00;11.38;;;13.90;99.90;;;14.45;78.02;100773.69;4826903;29;20493;-67
2022/09/30 06:28:53;;;;;;;12.85;11.20;;;14.10;99.90;;;14.64;76.86;100779.47;4826990;29;20493;-67
2022/09/30 06:31:23;;;;;;;12.40;11.05;;;14.30;99.90;;;14.86;75.75;100781.63;4826983;29;20046;-67
2022/09/30 06:33:53;;;;;;;13.93;10.63;;;14.50;99.90;;;15.19;74.86;100791.47;4826805;29;20452;-68
2022/09/30 06:36:21;;;;;;;12.87;10.83;;;14.80;99.90;;;15.39;74.32;100794.50;4826878;29;20050;-66
2022/09/30 06:38:51;;;;;;;11.23;10.02;;;15.10;99.90;;;15.65;73.18;100806.34;4826788;29;20061;-67
2022/09/30 06:41:20;;;;;;;12.13;9.63;;;15.30;99.90;;;15.90;72.31;100805.66;4827086;29;20097;-68
2022/09/30 06:43:49;;;;;;;10.02;8.93;;;15.60;99.90;;;16.11;71.47;100799.72;4826624;29;20074;-68
2022/09/30 06:46:26;;;;;;;9.45;8.50;;;15.80;99.90;;;16.33;70.51;100805.31;4826785;29;20394;-68
2022/09/30 06:48:59;;;;;;;10.57;9.00;;;16.00;99.90;;;16.45;69.69;100791.63;4827043;29;20050;-68
2022/09/30 06:51:40;;;;;;;10.82;8.32;;;16.20;99.90;;;16.82;68.83;100810.13;4826674;29;20070;-67
2022/09/30 06:54:10;;;;;;;8.32;7.53;;;16.40;99.90;;;17.14;67.84;100810.84;4840901;29;20046;-67
2022/09/30 06:56:38;;;;;;;9.18;8.27;;;16.70;99.90;;;17.20;66.90;100807.09;4826760;29;20057;-68
2022/09/30 06:59:06;;;;;;;9.73;8.02;;;16.80;99.90;;;17.12;66.11;100769.94;4826540;29;20106;-66
2022/09/30 07:01:36;;;;;;;11.18;8.57;;;17.00;99.90;;;17.60;65.52;100807.56;4826435;29;20081;-68
2022/09/30 07:04:08;;;;;;;9.38;8.20;;;17.20;99.90;;;17.77;65.19;100799.81;4826676;29;20050;-69
2022/09/30 07:06:37;;;;;;;10.25;6.70;;;17.50;99.90;;;18.07;64.91;100803.22;4826652;29;20054;-65
2022/09/30 07:09:07;;;;;;;8.60;7.80;;;17.80;99.90;;;18.22;64.66;100801.78;4826164;29;20046;-64
2022/09/30 07:11:36;;;;;;;7.97;7.18;;;18.00;99.90;;;18.27;64.73;100795.34;4826324;29;20057;-66
2022/09/30 07:14:05;;;;;;;7.47;6.78;;;18.10;99.90;;;18.24;64.79;100792.75;4826656;29;20489;-68
2022/09/30 07:16:34;;;;;;;7.20;6.50;;;18.10;99.90;;;18.22;64.98;100797.28;4825908;29;20078;-67
2022/09/30 07:19:05;;;;;;;7.32;6.63;;;18.10;99.90;;;18.38;65.00;100795.81;4826200;29;20053;-67
2022/09/30 07:21:34;;;;;;;6.68;6.07;;;18.20;99.90;;;18.59;65.07;100802.19;4826122;29;20084;-68
2022/09/30 07:24:02;;;;;;;8.35;6.45;;;18.40;99.90;;;18.84;65.13;100800.28;4826667;29;20057;-67
2022/09/30 07:26:31;;;;;;;7.53;6.82;;;18.50;99.90;;;19.18;64.70;100792.63;4826280;29;20053;-68
2022/09/30 07:28:59;;;;;;;7.07;6.45;;;18.90;99.90;;;19.50;64.42;100794.03;4840198;29;20042;-67
2022/09/30 07:31:28;;;;;;;7.57;6.88;;;19.30;99.90;;;19.65;63.50;100771.91;4826169;29;20054;-68
2022/09/30 07:34:06;;;;;;;8.65;6.97;;;19.60;99.90;;;20.05;62.77;100796.09;4826451;29;20051;-66
2022/09/30 07:36:37;;;;;;;7.53;6.82;;;20.00;99.90;;;20.39;61.94;100799.03;4826076;29;20110;-67
2022/09/30 07:39:09;;;;;;;7.70;6.50;;;20.20;99.90;;;20.72;61.50;100799.28;4825872;29;20053;-68
2022/09/30 07:41:39;;;;;;;7.18;6.38;;;20.50;99.90;;;20.49;60.71;100710.78;4826543;29;20076;-68
2022/09/30 07:44:13;;;;;;;8.43;7.05;;;20.90;99.90;;;21.27;59.56;100805.59;4825694;29;20047;-67
2022/09/30 07:46:43;;;;;;;6.88;6.22;;;21.10;99.90;;;21.41;58.98;100805.75;4826191;29;20050;-67
2022/09/30 07:49:23;;;;;;;6.85;6.15;;;21.20;99.90;;;21.49;59.21;100806.25;4825955;29;20073;-67
2022/09/30 07:51:54;;;;;;;;;;;21.30;99.90;;;20.04;58.61;100573.25;4826690;29;20046;-68
2022/09/30 07:54:26;;;;;;;7.00;6.32;;;21.50;99.90;;;21.83;57.93;100814.41;4825969;29;19924;-68
2022/09/30 07:56:56;;;;;;;7.32;6.63;;;21.60;99.90;;;21.95;57.17;100818.28;4839896;29;20064;-67
2022/09/30 07:59:40;;;;;;;10.45;7.20;;;21.70;99.90;;;21.90;56.99;100796.97;4826086;29;20141;-68
2022/09/30 08:02:15;;;;;;;7.30;6.07;;;21.80;99.90;;;22.13;56.58;100815.50;4825804;29;20050;-68
2022/09/30 08:04:45;;;;;;;8.27;6.53;;;21.90;99.90;;;22.16;55.61;100812.63;4825585;29;20111;-66
2022/09/30 08:07:16;;;;;;;7.07;5.72;;;21.90;99.90;;;22.18;55.91;100815.25;4826022;29;20089;-65
2022/09/30 08:09:45;;;;;;;6.68;6.07;;;22.00;99.90;;;22.16;55.84;100811.78;4826087;29;20133;-65
2022/09/30 08:12:13;;;;;;;8.45;5.95;;;21.90;99.90;;;22.18;55.60;100809.88;4825365;29;20073;-65
2022/09/30 08:14:43;;;;;;;7.05;6.35;;;21.90;99.90;;;22.10;55.29;100807.59;4825584;29;20054;-65
2022/09/30 08:17:11;;;;;;;6.33;5.73;;;21.90;99.90;;;21.88;56.44;100811.47;4839615;29;20105;-65
2022/09/30 08:19:42;;;;;;;6.10;5.50;;;21.80;99.90;;;21.94;56.88;100809.34;4825380;29;20421;-65
2022/09/30 08:22:13;;;;;;;6.47;5.28;;;21.70;99.90;;;21.91;56.98;100805.94;4839523;29;20061;-65
2022/09/30 08:24:42;;;;;;;4.95;4.55;;;21.70;99.90;;;21.49;57.02;100809.81;4825240;29;20050;-65
2022/09/30 08:27:10;;;;;;;7.13;4.72;;;21.40;99.90;;;21.33;57.87;100816.06;4825404;29;20461;-65
2022/09/30 08:29:39;;;;;;;5.78;4.35;;;21.20;99.90;;;21.55;57.75;100804.13;4824559;29;20447;-68
2022/09/30 08:32:22;;;;;;;4.95;4.45;;;21.30;99.90;;;21.69;57.58;100791.78;4839376;29;20141;-66
2022/09/30 08:34:50;;;;;;;4.82;4.00;;;21.50;99.90;;;21.74;56.87;100808.59;4823253;29;20081;-66
2022/09/30 08:37:20;;;;;;;4.82;3.97;;;21.50;99.90;;;21.55;57.29;100812.22;4825003;29;20637;-66
2022/09/30 08:39:48;;;;;;;5.40;3.37;;;21.40;99.90;;;21.40;57.06;100812.09;4839134;29;20060;-66
2022/09/30 08:42:31;;;;;;;4.30;3.53;;;21.20;99.90;;;21.34;56.56;100809.72;4824893;29;20050;-66
2022/09/30 08:45:20;;;;;;;3.70;3.40;;;21.20;99.90;;;20.76;56.51;100679.00;4825061;29;20390;-66
2022/09/30 08:47:59;;;;;;;4.43;3.58;;;21.20;99.90;;;21.54;56.17;100809.59;4824819;29;20440;-66
2022/09/30 08:50:34;;;;;;;5.38;3.60;;;21.20;99.90;;;21.67;55.67;100813.41;4825405;29;20046;-66
2022/09/30 08:53:10;;;;;;;2.95;2.75;;;21.40;99.90;;;21.75;55.09;100818.41;4825192;29;20054;-66
2022/09/30 08:55:42;;;;;;;3.67;2.85;;;21.50;99.90;;;21.71;55.24;100823.09;4838977;29;20417;-66
2022/09/30 08:58:21;;;;;;;6.90;2.67;;;21.50;99.90;;;21.78;55.31;100818.22;4825102;29;20150;-66
2022/09/30 09:00:54;;;;;;;4.53;3.20;;;21.50;99.90;;;21.85;54.30;100807.13;4824784;29;20077;-66
2022/09/30 09:03:29;;;;;;;3.58;2.78;;;21.60;99.90;;;21.94;54.14;100816.53;4825015;29;20050;-66
2022/09/30 09:06:14;;;;;;;2.58;2.38;;;21.70;99.90;;;22.08;54.48;100806.81;4824940;29;20055;-66
2022/09/30 09:08:59;;;;;;;5.32;3.65;;;21.80;99.90;;;22.21;53.45;100809.69;4825054;29;20129;-66
2022/09/30 09:11:46;;;;;;;4.03;3.53;;;21.90;99.90;;;22.19;53.44;100823.25;4824865;29;20470;-66
2022/09/30 09:14:36;;;;;;;3.17;2.97;;;21.90;99.90;;;22.12;52.23;100816.47;4824549;29;20227;-66
2022/09/30 09:17:24;;;;;;;5.03;3.40;;;21.90;99.90;;;22.16;52.43;100819.88;4824531;29;20157;-66
2022/09/30 09:20:04;;;;;;;5.57;3.50;;;21.90;99.90;;;22.05;52.23;100831.19;4824726;29;20056;-66
2022/09/30 09:22:34;;;;;;;4.07;3.40;;;21.80;99.90;;;22.10;52.81;100818.38;4824498;29;20046;-66
2022/09/30 09:25:05;;;;;;;3.58;3.00;;;21.80;99.90;;;22.19;53.16;100830.47;4824661;29;20299;-66
2022/09/30 09:27:49;;;;;;;3.58;3.38;;;21.90;99.90;;;22.08;51.97;100822.09;4824477;29;20137;-66
2022/09/30 09:30:21;;;;;;;4.03;3.72;;;21.90;99.90;;;21.97;52.24;100821.78;4824410;29;20051;-65
2022/09/30 09:32:54;;;;;;;5.45;3.13;;;21.70;99.90;;;21.99;52.37;100831.50;4824648;29;20053;-66
2022/09/30 09:35:39;;;;;;;3.38;3.08;;;21.70;99.90;;;22.04;52.35;100829.47;4822602;29;20131;-66
2022/09/30 09:38:24;;;;;;;3.60;3.30;;;21.80;99.90;;;22.01;53.28;100837.69;4824514;29;20047;-65
2022/09/30 09:41:11;;;;;;;4.05;3.75;;;21.70;99.90;;;22.09;53.29;100838.16;4824267;29;20042;-65
2022/09/30 09:43:51;;;;;;;3.75;3.45;;;21.80;99.90;;;22.21;53.03;100833.97;4824569;29;20057;-66
2022/09/30 09:46:26;;;;;;;8.77;3.47;;;21.90;99.90;;;21.82;53.03;100796.50;4824124;29;20521;-66
2022/09/30 09:49:27;;;;;;;4.45;3.20;;;21.80;99.90;;;22.05;53.55;100809.63;4823986;29;20417;-66
2022/09/30 09:52:22;;;;;;;;;;;21.90;99.90;;;22.15;52.13;100820.81;4824400;29;20060;-66
2022/09/30 09:54:55;;;;;;;4.53;4.13;;;21.90;99.90;;;22.42;53.55;100820.22;4823938;29;20383;-66
2022/09/30 09:57:31;;;;;;;4.80;4.30;;;22.10;99.90;;;22.48;53.10;100826.22;4824310;29;20134;-65
2022/09/30 10:01:09;;;;;;;4.88;4.25;;;22.20;99.90;;;22.61;53.38;100830.03;4824137;29;20050;-65
2022/09/30 10:03:02;;;;;;;3.83;2.97;;;22.30;99.90;;;22.70;53.37;100825.03;4823967;29;20042;-65
2022/09/30 10:05:38;;;;;;;5.20;2.75;;;22.40;99.90;;;22.61;52.21;100801.22;4823954;29;20074;-66
2022/09/30 10:08:15;;;;;;;5.22;3.70;;;22.40;99.90;;;22.78;51.77;100827.28;4838046;29;20078;-65
2022/09/30 10:10:50;;;;;;;6.35;3.40;;;22.40;99.90;;;22.56;52.36;100830.25;4823801;29;20042;-66
2022/09/30 10:13:23;;;;;;;3.58;3.28;;;22.40;99.90;;;22.42;52.26;100814.81;4823877;29;20500;-65
2022/09/30 10:15:54;;;;;;;5.80;3.45;;;22.20;99.90;;;22.33;52.02;100796.47;4823784;29;20093;-68
2022/09/30 10:18:28;;;;;;;3.63;3.10;;;22.10;99.90;;;22.37;50.62;100818.72;4823955;29;20074;-66
2022/09/30 10:21:00;;;;;;;4.88;3.33;;;22.00;99.90;;;22.46;51.12;100818.22;4823693;29;20404;-65
2022/09/30 10:23:32;;;;;;;3.60;3.30;;;22.10;99.90;;;22.59;51.30;100818.47;4823724;29;20046;-66
2022/09/30 10:26:16;;;;;;;4.72;3.88;;;22.20;99.90;;;22.69;51.59;100811.59;4823620;29;20047;-66
2022/09/30 10:28:52;;;;;;;3.92;3.63;;;22.30;99.90;;;22.82;51.29;100816.22;4823443;29;20439;-65
2022/09/30 10:31:25;;;;;;;5.40;3.72;;;22.50;99.90;;;22.79;51.38;100805.63;4823729;29;20056;-65
2022/09/30 10:34:00;;;;;;;4.25;3.20;;;22.50;99.90;;;22.91;50.78;100822.94;4823965;29;20070;-65
2022/09/30 10:36:33;;;;;;;4.72;3.88;;;22.60;99.90;;;22.80;51.10;100825.38;4823523;29;20485;-66
2022/09/30 10:39:06;;;;;;;7.85;4.60;;;22.50;99.90;;;22.59;51.84;100830.09;4823543;29;20141;-66